createdAt,value
2018-09-03T00:00:40.098Z,90.70
2018-09-03T00:03:09.509Z,90.80
2018-09-03T00:05:38.914Z,90.70
2018-09-03T00:08:08.249Z,91.10
2018-09-03T00:10:37.690Z,90.70
2018-09-03T00:13:07.009Z,90.70
2018-09-03T00:15:36.525Z,90.70
2018-09-03T00:18:06.048Z,90.70
2018-09-03T00:20:35.794Z,90.60
2018-09-03T00:23:05.248Z,90.50
2018-09-03T00:25:35.182Z,90.50
2018-09-03T00:28:04.591Z,90.50
2018-09-03T00:30:33.915Z,90.40
2018-09-03T00:33:08.549Z,90.50
2018-09-03T00:35:43.905Z,90.40
2018-09-03T00:38:18.364Z,90.40
2018-09-03T00:40:53.041Z,90.40
2018-09-03T00:43:27.596Z,90.40
2018-09-03T00:46:02.227Z,90.40
2018-09-03T00:48:31.553Z,90.50
2018-09-03T00:51:00.864Z,90.60
2018-09-03T00:53:30.282Z,90.60
2018-09-03T00:55:59.736Z,90.70
2018-09-03T00:58:29.092Z,90.60
2018-09-03T01:00:59.304Z,90.70
2018-09-03T01:03:28.731Z,90.70
2018-09-03T01:05:58.062Z,90.70
2018-09-03T01:08:28.002Z,90.70
2018-09-03T01:10:57.523Z,90.70
2018-09-03T01:13:27.269Z,90.70
2018-09-03T01:15:56.630Z,90.60
2018-09-03T01:18:26.059Z,90.60
2018-09-03T01:20:55.370Z,90.60
2018-09-03T01:23:25.458Z,90.50
2018-09-03T01:25:54.819Z,90.50
2018-09-03T01:28:24.995Z,90.90
2018-09-03T01:30:55.123Z,90.60
2018-09-03T01:33:25.280Z,90.60
2018-09-03T01:35:55.306Z,90.60
2018-09-03T01:38:24.773Z,90.60
2018-09-03T01:40:54.549Z,90.50
2018-09-03T01:43:23.880Z,90.40
2018-09-03T01:45:53.303Z,90.30
2018-09-03T01:48:22.631Z,90.20
2018-09-03T01:50:51.948Z,90.20
2018-09-03T01:53:21.387Z,90.10
2018-09-03T01:55:51.037Z,90.10
2018-09-03T01:58:20.393Z,90.10
2018-09-03T02:00:50.465Z,90.10
2018-09-03T02:03:19.900Z,90.10
2018-09-03T02:05:49.740Z,90.10
2018-09-03T02:08:19.074Z,90.10
2018-09-03T02:10:48.712Z,90.20
2018-09-03T02:13:18.173Z,90.20
2018-09-03T02:15:47.660Z,90.20
2018-09-03T02:18:17.030Z,90.20
2018-09-03T02:20:46.460Z,90.20
2018-09-03T02:23:16.320Z,90.30
2018-09-03T02:25:45.646Z,90.30
2018-09-03T02:28:15.018Z,90.30
2018-09-03T02:30:44.557Z,90.40
2018-09-03T02:33:13.886Z,90.40
2018-09-03T02:35:43.815Z,90.50
2018-09-03T02:38:13.202Z,90.50
2018-09-03T02:40:42.512Z,90.50
2018-09-03T02:43:11.932Z,90.50
2018-09-03T02:45:41.886Z,90.50
2018-09-03T02:48:12.601Z,90.60
2018-09-03T02:50:41.960Z,90.60
2018-09-03T02:53:11.312Z,90.60
2018-09-03T02:55:40.760Z,90.60
2018-09-03T02:58:11.419Z,90.60
2018-09-03T03:00:40.757Z,90.70
2018-09-03T03:03:10.102Z,90.70
2018-09-03T03:05:39.512Z,90.80
2018-09-03T03:08:08.840Z,90.80
2018-09-03T03:10:38.313Z,90.70
2018-09-03T03:13:07.777Z,90.70
2018-09-03T03:15:37.111Z,90.60
2018-09-03T03:18:06.622Z,90.60
2018-09-03T03:20:35.937Z,90.60
2018-09-03T03:23:05.431Z,90.60
2018-09-03T03:25:34.973Z,90.60
2018-09-03T03:28:04.965Z,90.90
2018-09-03T03:30:34.365Z,90.60
2018-09-03T03:33:03.929Z,90.60
2018-09-03T03:35:33.591Z,90.60
2018-09-03T03:38:03.124Z,90.60
2018-09-03T03:40:32.579Z,90.70
2018-09-03T03:43:02.463Z,90.70
2018-09-03T03:45:32.304Z,90.70
2018-09-03T03:48:01.602Z,90.70
2018-09-03T03:50:31.696Z,90.70
2018-09-03T03:53:01.090Z,90.80
2018-09-03T03:55:30.445Z,90.80
2018-09-03T03:57:59.796Z,90.80
2018-09-03T04:00:29.192Z,90.80
2018-09-03T04:02:58.508Z,90.80
2018-09-03T04:05:27.910Z,90.80
2018-09-03T04:07:57.288Z,90.70
2018-09-03T04:10:27.194Z,90.70
2018-09-03T04:12:59.276Z,90.70
2018-09-03T04:15:28.623Z,90.70
2018-09-03T04:17:58.091Z,90.70
2018-09-03T04:20:27.427Z,90.70
2018-09-03T04:22:56.900Z,90.70
2018-09-03T04:25:26.849Z,90.80
2018-09-03T04:27:56.687Z,90.80
2018-09-03T04:30:26.183Z,90.80
2018-09-03T04:32:56.010Z,90.80
2018-09-03T04:35:25.371Z,90.70
2018-09-03T04:37:54.727Z,90.80
2018-09-03T04:40:24.071Z,90.80
2018-09-03T04:42:53.634Z,90.90
2018-09-03T04:45:23.445Z,90.90
2018-09-03T04:47:52.799Z,90.90
2018-09-03T04:50:22.152Z,91.00
2018-09-03T04:52:52.500Z,91.00
2018-09-03T04:55:22.030Z,91.00
2018-09-03T04:57:51.930Z,91.00
2018-09-03T05:00:21.368Z,91.00
2018-09-03T05:02:50.834Z,91.10
2018-09-03T05:05:20.221Z,91.10
2018-09-03T05:07:50.744Z,91.10
2018-09-03T05:10:20.883Z,91.10
2018-09-03T05:12:50.842Z,91.10
2018-09-03T05:15:20.295Z,91.20
2018-09-03T05:17:50.370Z,91.10
2018-09-03T05:20:19.767Z,91.20
2018-09-03T05:22:50.955Z,91.10
2018-09-03T05:25:21.167Z,91.10
2018-09-03T05:27:51.158Z,91.20
2018-09-03T05:30:20.607Z,91.20
2018-09-03T05:32:50.351Z,91.20
2018-09-03T05:35:20.827Z,91.20
2018-09-03T05:37:50.414Z,91.20
2018-09-03T05:40:20.017Z,91.30
2018-09-03T05:42:51.226Z,91.30
2018-09-03T05:45:21.101Z,91.30
2018-09-03T05:47:52.508Z,91.30
2018-09-03T05:50:23.408Z,91.30
2018-09-03T05:53:01.780Z,91.30
2018-09-03T05:55:32.034Z,91.30
2018-09-03T05:58:01.466Z,91.20
2018-09-03T06:00:30.875Z,91.30
2018-09-03T06:03:01.323Z,91.20
2018-09-03T06:05:31.832Z,91.30
2018-09-03T06:08:01.395Z,91.20
2018-09-03T06:10:30.857Z,91.30
2018-09-03T06:13:00.587Z,91.30
2018-09-03T06:15:30.755Z,91.30
2018-09-03T06:18:00.441Z,91.30
2018-09-03T06:20:30.767Z,91.40
2018-09-03T06:23:00.176Z,91.40
2018-09-03T06:25:29.695Z,91.40
2018-09-03T06:27:59.180Z,91.40
2018-09-03T06:30:28.964Z,91.40
2018-09-03T06:32:59.156Z,91.50
2018-09-03T06:35:28.581Z,91.50
2018-09-03T06:37:58.076Z,91.50
2018-09-03T06:40:28.272Z,91.50
2018-09-03T06:42:59.876Z,91.50
2018-09-03T06:45:29.570Z,91.30
2018-09-03T06:47:59.230Z,91.40
2018-09-03T06:50:29.435Z,91.30
2018-09-03T06:52:59.283Z,91.40
2018-09-03T06:55:29.191Z,91.50
2018-09-03T06:57:59.423Z,91.50
2018-09-03T07:00:29.391Z,91.40
2018-09-03T07:02:58.920Z,91.30
2018-09-03T07:05:28.789Z,91.30
2018-09-03T07:07:58.211Z,91.40
2018-09-03T07:10:27.719Z,91.40
2018-09-03T07:12:57.067Z,91.30
2018-09-03T07:15:27.239Z,91.20
2018-09-03T07:17:56.631Z,91.30
2018-09-03T07:20:26.111Z,91.40
2018-09-03T07:22:55.543Z,91.30
2018-09-03T07:25:24.901Z,91.40
2018-09-03T07:27:54.697Z,91.30
2018-09-03T07:30:24.349Z,91.30
2018-09-03T07:32:53.688Z,91.20
2018-09-03T07:35:23.177Z,91.20
2018-09-03T07:37:52.537Z,91.30
2018-09-03T07:40:22.065Z,91.40
2018-09-03T07:42:52.867Z,91.40
2018-09-03T07:45:22.382Z,91.30
2018-09-03T07:47:51.890Z,91.20
2018-09-03T07:50:21.711Z,91.20
2018-09-03T07:52:51.046Z,91.20
2018-09-03T07:55:20.990Z,91.20
2018-09-03T07:57:52.464Z,91.20
2018-09-03T08:00:24.784Z,91.10
2018-09-03T08:02:55.133Z,91.10
2018-09-03T08:05:24.546Z,91.10
2018-09-03T08:07:53.932Z,91.00
2018-09-03T08:10:23.385Z,90.90
2018-09-03T08:12:52.756Z,90.90
2018-09-03T08:15:23.247Z,91.00
2018-09-03T08:17:53.928Z,91.00
2018-09-03T08:20:23.355Z,91.00
2018-09-03T08:22:52.817Z,91.00
2018-09-03T08:25:22.541Z,91.10
2018-09-03T08:27:54.592Z,91.00
2018-09-03T08:30:24.328Z,91.00
2018-09-03T08:32:53.923Z,91.00
2018-09-03T08:35:23.729Z,91.00
2018-09-03T08:37:53.579Z,91.10
2018-09-03T08:40:23.534Z,91.10
2018-09-03T08:42:54.330Z,91.20
2018-09-03T08:45:23.857Z,91.30
2018-09-03T08:47:53.260Z,91.30
2018-09-03T08:50:22.671Z,91.30
2018-09-03T08:52:52.189Z,91.30
2018-09-03T08:55:22.020Z,91.20
2018-09-03T08:57:51.446Z,91.20
2018-09-03T09:00:20.804Z,91.40
2018-09-03T09:02:50.386Z,91.10
2018-09-03T09:05:19.796Z,91.00
2018-09-03T09:07:49.852Z,91.00
2018-09-03T09:10:19.285Z,90.90
2018-09-03T09:12:50.093Z,90.90
2018-09-03T09:15:19.468Z,90.80
2018-09-03T09:17:49.819Z,90.70
2018-09-03T09:20:20.127Z,90.60
2018-09-03T09:22:49.979Z,90.60
2018-09-03T09:25:20.194Z,90.40
2018-09-03T09:27:49.563Z,90.30
2018-09-03T09:30:20.046Z,90.20
2018-09-03T09:32:50.149Z,90.20
2018-09-03T09:35:20.801Z,90.00
2018-09-03T09:37:50.247Z,90.00
2018-09-03T09:40:19.572Z,90.00
2018-09-03T09:42:49.077Z,89.80
2018-09-03T09:45:18.500Z,89.80
2018-09-03T09:47:48.415Z,89.70
2018-09-03T09:50:17.719Z,89.70
2018-09-03T09:52:47.189Z,89.50
2018-09-03T09:55:17.841Z,89.30
2018-09-03T09:57:47.243Z,89.40
2018-09-03T10:00:22.173Z,89.20
2018-09-03T10:02:51.624Z,89.00
2018-09-03T10:05:21.055Z,89.10
2018-09-03T10:07:51.782Z,89.10
2018-09-03T10:10:21.205Z,89.00
2018-09-03T10:12:50.617Z,89.00
2018-09-03T10:15:19.996Z,88.90
2018-09-03T10:17:49.548Z,88.80
2018-09-03T10:20:19.972Z,88.70
2018-09-03T10:22:49.333Z,88.60
2018-09-03T10:25:18.776Z,88.40
2018-09-03T10:27:48.620Z,88.40
2018-09-03T10:30:19.488Z,88.40
2018-09-03T10:32:48.959Z,88.40
2018-09-03T10:35:18.283Z,88.40
2018-09-03T10:37:47.920Z,88.10
2018-09-03T10:40:17.350Z,88.10
2018-09-03T10:42:47.541Z,87.80
2018-09-03T10:45:17.215Z,87.80
2018-09-03T10:47:47.841Z,88.00
2018-09-03T10:50:17.268Z,88.10
2018-09-03T10:52:46.714Z,87.80
2018-09-03T10:55:16.207Z,87.70
2018-09-03T10:57:45.551Z,87.70
2018-09-03T11:00:16.359Z,87.70
2018-09-03T11:02:45.872Z,87.50
2018-09-03T11:05:15.694Z,87.30
2018-09-03T11:07:45.027Z,87.10
2018-09-03T11:10:14.898Z,86.90
2018-09-03T11:12:45.229Z,86.60
2018-09-03T11:15:16.085Z,86.20
2018-09-03T11:17:46.197Z,86.20
2018-09-03T11:20:25.132Z,86.00
2018-09-03T11:22:55.708Z,85.90
2018-09-03T11:25:27.866Z,85.90
2018-09-03T11:27:57.297Z,85.50
2018-09-03T11:30:27.964Z,85.20
2018-09-03T11:32:59.423Z,85.20
2018-09-03T11:35:28.926Z,84.90
2018-09-03T11:37:59.151Z,84.60
2018-09-03T11:40:28.632Z,84.50
2018-09-03T11:42:58.074Z,84.60
2018-09-03T11:45:27.498Z,84.80
2018-09-03T11:47:56.927Z,84.80
2018-09-03T11:50:26.931Z,84.60
2018-09-03T11:52:56.358Z,84.40
2018-09-03T11:55:26.281Z,84.20
2018-09-03T11:57:56.179Z,84.10
2018-09-03T12:00:28.829Z,84.30
2018-09-03T12:02:58.507Z,84.40
2018-09-03T12:05:29.436Z,84.30
2018-09-03T12:07:59.335Z,84.30
2018-09-03T12:10:29.223Z,84.50
2018-09-03T12:12:59.311Z,84.30
2018-09-03T12:15:47.823Z,84.00
2018-09-03T12:18:19.547Z,84.00
2018-09-03T12:20:49.679Z,83.70
2018-09-03T12:23:22.541Z,83.30
2018-09-03T12:25:53.241Z,83.40
2018-09-03T12:28:23.328Z,83.10
2018-09-03T12:30:53.750Z,83.00
2018-09-03T12:33:24.946Z,82.70
2018-09-03T12:35:55.748Z,82.50
2018-09-03T12:38:26.298Z,82.60
2018-09-03T12:40:55.801Z,82.60
2018-09-03T12:43:25.834Z,82.50
2018-09-03T12:46:01.683Z,82.60
2018-09-03T12:48:32.810Z,82.80
2018-09-03T12:51:04.063Z,82.80
2018-09-03T12:53:34.872Z,82.80
2018-09-03T12:56:04.552Z,82.90
2018-09-03T12:58:36.203Z,82.90
2018-09-03T13:01:05.766Z,82.60
2018-09-03T13:03:35.134Z,82.70
2018-09-03T13:06:04.607Z,82.80
2018-09-03T13:08:35.918Z,83.10
2018-09-03T13:11:05.335Z,83.10
2018-09-03T13:13:35.358Z,83.00
2018-09-03T13:16:04.758Z,83.00
2018-09-03T13:18:34.216Z,84.00
2018-09-03T13:21:03.574Z,83.20
2018-09-03T13:23:33.618Z,83.30
2018-09-03T13:26:03.258Z,82.90
2018-09-03T13:28:32.836Z,82.80
2018-09-03T13:31:02.348Z,82.20
2018-09-03T13:33:54.760Z,81.80
2018-09-03T13:36:24.158Z,81.80
2018-09-03T13:38:53.511Z,82.00
2018-09-03T13:41:22.938Z,82.10
2018-09-03T13:43:52.863Z,81.20
2018-09-03T13:46:22.772Z,80.20
2018-09-03T13:48:52.228Z,79.50
2018-09-03T13:51:21.586Z,79.50
2018-09-03T13:53:50.979Z,78.70
2018-09-03T13:56:20.549Z,78.30
2018-09-03T13:58:50.377Z,78.10
2018-09-03T14:01:20.012Z,77.70
2018-09-03T14:03:49.459Z,76.90
2018-09-03T14:06:18.819Z,77.10
2018-09-03T14:08:48.339Z,77.00
2018-09-03T14:11:20.711Z,77.00
2018-09-03T14:13:51.393Z,76.30
2018-09-03T14:16:21.662Z,76.00
2018-09-03T14:18:51.059Z,74.80
2018-09-03T14:21:20.869Z,74.20
2018-09-03T14:23:50.350Z,73.90
2018-09-03T14:26:23.864Z,73.30
2018-09-03T14:28:53.350Z,73.20
2018-09-03T14:31:24.420Z,72.80
2018-09-03T14:33:55.228Z,72.60
2018-09-03T14:36:24.750Z,72.20
2018-09-03T14:38:54.334Z,72.30
2018-09-03T14:41:24.324Z,71.50
2018-09-03T14:43:53.728Z,71.90
2018-09-03T14:46:23.649Z,71.80
2018-09-03T14:48:53.119Z,71.50
2018-09-03T14:51:23.017Z,71.90
2018-09-03T14:53:52.528Z,72.00
2018-09-03T14:56:22.144Z,72.00
2018-09-03T14:58:51.642Z,72.00
2018-09-03T15:01:21.091Z,71.70
2018-09-03T15:03:50.499Z,71.60
2018-09-03T15:06:23.837Z,71.60
2018-09-03T15:08:53.974Z,71.70
2018-09-03T15:11:23.383Z,72.20
2018-09-03T15:13:58.247Z,72.20
2018-09-03T15:16:31.817Z,72.10
2018-09-03T15:19:03.961Z,72.50
2018-09-03T15:21:36.105Z,72.20
2018-09-03T15:24:06.229Z,72.30
2018-09-03T15:26:35.859Z,72.30
2018-09-03T15:29:05.122Z,72.30
2018-09-03T15:31:34.577Z,72.50
2018-09-03T15:34:04.186Z,72.70
2018-09-03T15:36:34.682Z,72.90
2018-09-03T15:39:05.230Z,73.00
2018-09-03T15:41:35.734Z,73.20
2018-09-03T15:44:05.620Z,73.20
2018-09-03T15:46:34.996Z,73.30
2018-09-03T15:49:04.481Z,73.30
2018-09-03T15:51:34.562Z,73.60
2018-09-03T15:54:03.933Z,73.80
2018-09-03T15:56:33.263Z,74.00
2018-09-03T15:59:02.692Z,74.20
2018-09-03T16:01:32.051Z,74.40
2018-09-03T16:04:01.393Z,74.60
2018-09-03T16:06:31.448Z,74.70
2018-09-03T16:09:01.372Z,74.70
2018-09-03T16:11:32.143Z,74.70
2018-09-03T16:14:01.475Z,75.10
2018-09-03T16:16:30.793Z,75.30
2018-09-03T16:19:00.643Z,75.90
2018-09-03T16:21:30.101Z,76.50
2018-09-03T16:24:00.647Z,76.70
2018-09-03T16:26:30.105Z,76.80
2018-09-03T16:28:59.562Z,76.80
2018-09-03T16:31:29.730Z,76.70
2018-09-03T16:33:59.130Z,76.60
2018-09-03T16:36:28.918Z,76.80
2018-09-03T16:38:58.593Z,76.50
2018-09-03T16:41:30.644Z,76.40
2018-09-03T16:44:01.201Z,75.90
2018-09-03T16:46:31.414Z,75.80
2018-09-03T16:49:02.566Z,76.30
2018-09-03T16:51:33.464Z,76.10
2018-09-03T16:54:03.762Z,76.30
2018-09-03T16:56:33.864Z,76.70
2018-09-03T16:59:04.257Z,77.00
2018-09-03T17:01:34.192Z,77.30
2018-09-03T17:04:05.642Z,77.40
2018-09-03T17:06:35.582Z,77.50
2018-09-03T17:09:06.040Z,77.70
2018-09-03T17:11:36.395Z,77.60
2018-09-03T17:14:06.095Z,77.60
2018-09-03T17:16:35.479Z,77.60
2018-09-03T17:19:04.910Z,78.00
2018-09-03T17:21:34.279Z,78.20
2018-09-03T17:24:03.702Z,78.40
2018-09-03T17:26:34.353Z,78.50
2018-09-03T17:29:05.527Z,78.90
2018-09-03T17:31:36.595Z,78.90
2018-09-03T17:34:06.178Z,79.10
2018-09-03T17:36:35.655Z,79.30
2018-09-03T17:39:06.831Z,79.50
2018-09-03T17:41:36.358Z,80.20
2018-09-03T17:44:06.015Z,79.50
2018-09-03T17:46:38.351Z,79.60
2018-09-03T17:49:08.075Z,79.50
2018-09-03T17:51:39.828Z,79.60
2018-09-03T17:54:16.485Z,79.70
2018-09-03T17:56:48.967Z,79.80
2018-09-03T17:59:21.473Z,80.50
2018-09-03T18:01:51.322Z,79.90
2018-09-03T18:04:24.473Z,80.10
2018-09-03T18:06:54.180Z,80.00
2018-09-03T18:09:23.605Z,80.30
2018-09-03T18:11:53.762Z,80.50
2018-09-03T18:14:23.323Z,80.60
2018-09-03T18:16:55.721Z,80.70
2018-09-03T18:19:27.807Z,80.70
2018-09-03T18:21:57.554Z,80.80
2018-09-03T18:24:28.413Z,80.80
2018-09-03T18:26:58.137Z,81.00
2018-09-03T18:29:27.737Z,81.10
2018-09-03T18:31:57.567Z,81.10
2018-09-03T18:34:27.376Z,81.30
2018-09-03T18:36:57.210Z,81.40
2018-09-03T18:39:26.634Z,82.10
2018-09-03T18:41:58.028Z,81.40
2018-09-03T18:44:28.695Z,81.50
2018-09-03T18:46:59.131Z,81.60
2018-09-03T18:49:28.568Z,81.70
2018-09-03T18:51:59.359Z,81.80
2018-09-03T18:54:29.808Z,81.60
2018-09-03T18:57:00.035Z,81.80
2018-09-03T18:59:29.731Z,81.80
2018-09-03T19:02:06.137Z,81.90
2018-09-03T19:04:37.020Z,82.10
2018-09-03T19:07:09.181Z,82.10
2018-09-03T19:09:40.460Z,82.20
2018-09-03T19:12:11.944Z,82.10
2018-09-03T19:14:44.521Z,82.20
2018-09-03T19:17:14.149Z,82.40
2018-09-03T19:19:44.680Z,82.50
2018-09-03T19:22:14.884Z,82.50
2018-09-03T19:24:45.052Z,82.60
2018-09-03T19:27:15.732Z,82.70
2018-09-03T19:29:46.203Z,82.80
2018-09-03T19:32:16.008Z,82.90
2018-09-03T19:34:54.650Z,82.80
2018-09-03T19:37:27.133Z,82.80
2018-09-03T19:40:04.152Z,83.00
2018-09-03T19:42:35.302Z,82.80
2018-09-03T19:47:44.811Z,83.30
2018-09-03T19:50:17.260Z,83.40
2018-09-03T19:52:46.761Z,83.60
2018-09-03T19:55:16.309Z,83.70
2018-09-03T19:57:47.108Z,83.70
2018-09-03T20:00:16.455Z,83.90
2018-09-03T20:02:45.993Z,83.90
2018-09-03T20:05:15.518Z,84.00
2018-09-03T20:07:45.365Z,84.10
2018-09-03T20:10:19.782Z,84.00
2018-09-03T20:12:56.886Z,84.90
2018-09-03T20:15:28.270Z,84.30
2018-09-03T20:18:02.363Z,84.40
2018-09-03T20:20:32.928Z,84.60
2018-09-03T20:23:02.577Z,84.60
2018-09-03T20:25:32.578Z,85.00
2018-09-03T20:28:02.291Z,85.20
2018-09-03T20:30:34.119Z,85.30
2018-09-03T20:33:37.563Z,85.50
2018-09-03T20:36:06.994Z,85.50
2018-09-03T20:38:36.875Z,85.70
2018-09-03T20:41:06.310Z,85.70
2018-09-03T20:43:35.662Z,85.90
2018-09-03T20:46:05.192Z,85.90
2018-09-03T20:48:34.545Z,86.00
2018-09-03T20:51:04.797Z,86.00
2018-09-03T20:53:34.799Z,86.10
2018-09-03T20:56:04.385Z,86.20
2018-09-03T20:58:34.184Z,86.20
2018-09-03T21:01:04.504Z,86.30
2018-09-03T21:03:34.940Z,86.30
2018-09-03T21:06:04.344Z,86.50
2018-09-03T21:08:33.681Z,86.50
2018-09-03T21:11:03.277Z,86.50
2018-09-03T21:13:33.460Z,86.50
2018-09-03T21:16:03.693Z,86.50
2018-09-03T21:18:33.605Z,86.60
2018-09-03T21:21:02.999Z,86.60
2018-09-03T21:23:32.341Z,86.80
2018-09-03T21:26:01.728Z,86.80
2018-09-03T21:28:31.067Z,86.80
2018-09-03T21:31:00.451Z,86.90
2018-09-03T21:33:29.853Z,87.00
2018-09-03T21:35:59.227Z,86.90
2018-09-03T21:38:28.646Z,87.00
2018-09-03T21:40:57.994Z,87.10
2018-09-03T21:43:27.395Z,87.10
2018-09-03T21:45:57.515Z,87.20
2018-09-03T21:48:26.884Z,87.20
2018-09-03T21:50:56.229Z,87.20
2018-09-03T21:53:25.622Z,87.30
2018-09-03T21:55:55.133Z,88.20
2018-09-03T21:58:24.468Z,87.50
2018-09-03T22:00:53.969Z,87.50
2018-09-03T22:03:23.344Z,87.70
2018-09-03T22:05:52.777Z,87.60
2018-09-03T22:08:22.692Z,87.80
2018-09-03T22:10:52.160Z,87.80
2018-09-03T22:13:21.431Z,87.80
2018-09-03T22:15:50.866Z,87.90
2018-09-03T22:18:20.373Z,88.10
2018-09-03T22:20:50.286Z,88.20
2018-09-03T22:23:19.637Z,88.30
2018-09-03T22:25:49.694Z,88.40
2018-09-03T22:28:19.076Z,88.40
2018-09-03T22:30:48.495Z,88.50
2018-09-03T22:33:17.866Z,88.50
2018-09-03T22:35:47.248Z,88.50
2018-09-03T22:38:16.879Z,88.50
2018-09-03T22:40:46.310Z,88.60
2018-09-03T22:43:15.613Z,88.70
2018-09-03T22:45:45.383Z,88.60
2018-09-03T22:48:14.691Z,88.70
2018-09-03T22:50:44.011Z,88.70
2018-09-03T22:53:13.423Z,88.80
2018-09-03T22:55:42.997Z,88.90
2018-09-03T22:58:12.464Z,88.90
2018-09-03T23:00:41.783Z,89.80
2018-09-03T23:03:11.131Z,89.00
2018-09-03T23:05:40.495Z,89.00
2018-09-03T23:08:09.788Z,89.10
2018-09-03T23:10:39.716Z,89.10
2018-09-03T23:13:09.543Z,89.00
2018-09-03T23:15:39.097Z,89.10
2018-09-03T23:18:08.529Z,90.00
2018-09-03T23:20:38.575Z,89.10
2018-09-03T23:23:08.743Z,89.10
2018-09-03T23:25:38.753Z,89.10
2018-09-03T23:28:08.166Z,89.10
2018-09-03T23:30:37.535Z,89.00
2018-09-03T23:33:07.096Z,89.00
2018-09-03T23:35:36.410Z,89.00
2018-09-03T23:38:06.065Z,88.90
2018-09-03T23:40:35.615Z,88.90
2018-09-03T23:43:04.987Z,89.00
2018-09-03T23:45:34.361Z,89.10
2018-09-03T23:48:04.295Z,89.00
2018-09-03T23:50:33.694Z,89.10
2018-09-03T23:53:03.188Z,89.20
2018-09-03T23:55:32.668Z,89.30
2018-09-03T23:58:02.105Z,89.40
